Time;durP1;ratioP1;P1;durP2;ratioP2;P2;SDS_P1;SDS_P2;PMS_P1;PMS_P2;Temp;Humidity;BMP_temperature;BMP_pressure;BME280_temperature;BME280_humidity;BME280_pressure;Samples;Min_cycle;Max_cycle;Signal;HPM_P1;HPM_P2
2022/02/05 00:02:31;;;;;;;13.25;3.10;;;5.10;99.90;;;;;;4136805;28;20042;-66
2022/02/05 00:04:27;;;;;;;10.63;3.25;;;5.10;99.90;;;;;;4132144;28;20045;-66
2022/02/05 00:06:33;;;;;;;8.90;3.55;;;5.10;99.90;;;;;;4137976;28;20043;-67
2022/02/05 00:08:47;;;;;;;7.70;3.10;;;5.10;99.90;;;;;;4139859;28;20030;-66
2022/02/05 00:13:23;;;;;;;;;;;5.10;99.90;;;;;;4137534;28;20026;-66
2022/02/05 00:15:39;;;;;;;6.60;3.30;;;5.10;99.90;;;;;;4141816;28;19913;-66
2022/02/05 00:42:53;;;;;;;7.00;2.40;;;5.20;99.90;;;;;;4139747;28;20485;-66
2022/02/05 00:44:54;;;;;;;7.28;2.20;;;5.20;99.90;;;;;;4141607;28;20049;-66
2022/02/05 00:46:54;;;;;;;8.23;2.72;;;5.10;99.90;;;;;;4141300;28;20052;-66
2022/02/05 00:48:55;;;;;;;8.38;2.60;;;5.20;99.90;;;;;;4141804;28;20033;-66
2022/02/05 00:51:08;;;;;;;11.10;2.80;;;5.10;99.90;;;;;;4132925;28;20038;-66
2022/02/05 00:55:23;;;;;;;9.52;2.90;;;5.20;99.90;;;;;;4135161;28;20532;-66
2022/02/05 00:59:27;;;;;;;11.80;2.47;;;5.10;99.90;;;;;;4137016;28;20034;-67
2022/02/05 01:01:27;;;;;;;6.10;2.60;;;5.20;99.90;;;;;;4134182;28;20441;-67
2022/02/05 01:03:28;;;;;;;5.22;2.40;;;5.10;99.90;;;;;;4136656;28;20116;-67
2022/02/05 01:05:28;;;;;;;9.77;2.50;;;5.10;99.90;;;;;;4142840;28;20054;-67
2022/02/05 01:07:29;;;;;;;7.13;2.47;;;5.10;99.90;;;;;;4137740;28;20034;-66
2022/02/05 01:09:30;;;;;;;4.05;2.13;;;5.10;99.90;;;;;;4143386;28;20140;-66
2022/02/05 01:11:30;;;;;;;7.95;3.15;;;5.10;99.90;;;;;;4135728;28;20046;-67
2022/02/05 01:13:33;;;;;;;6.53;2.92;;;5.10;99.90;;;;;;4133899;28;20129;-66
2022/02/05 01:15:41;;;;;;;4.88;2.20;;;5.10;99.90;;;;;;4141926;28;20400;-66
2022/02/05 01:17:47;;;;;;;7.78;2.75;;;5.20;99.90;;;;;;4127290;28;20129;-66
2022/02/05 01:21:52;;;;;;;7.35;2.83;;;5.10;99.90;;;;;;4143115;28;20461;-66
2022/02/05 01:23:59;;;;;;;5.30;2.35;;;5.10;99.90;;;;;;4138804;28;20461;-65
2022/02/05 01:26:11;;;;;;;8.10;2.40;;;5.10;99.90;;;;;;4137364;28;20042;-66
2022/02/05 01:28:19;;;;;;;5.03;2.47;;;5.10;99.90;;;;;;4141371;28;20046;-66
2022/02/05 01:30:31;;;;;;;6.78;2.88;;;5.20;99.90;;;;;;4139322;28;20516;-66
2022/02/05 01:32:34;;;;;;;5.45;2.33;;;5.20;99.90;;;;;;4133380;28;20367;-66
2022/02/05 01:34:45;;;;;;;5.05;2.53;;;5.20;99.90;;;;;;4113022;28;20043;-65
2022/02/05 01:58:57;;;;;;;8.65;2.65;;;5.10;99.90;;;;;;4116669;28;20046;-66
2022/02/05 02:05:09;;;;;;;8.07;3.05;;;5.10;99.90;;;;;;4139839;28;20085;-68
2022/02/05 02:07:25;;;;;;;7.03;3.10;;;5.10;99.90;;;;;;4139611;28;20045;-66
2022/02/05 02:09:56;;;;;;;14.35;3.15;;;5.10;99.90;;;;;;4140016;28;20389;-66
2022/02/05 02:12:02;;;;;;;16.35;3.42;;;5.10;99.90;;;;;;4137851;28;20042;-67
2022/02/05 02:20:36;;;;;;;8.15;2.92;;;5.00;99.90;;;;;;4138259;28;20481;-66
2022/02/05 02:22:54;;;;;;;5.65;2.47;;;5.00;99.90;;;;;;4122935;28;20097;-66
2022/02/05 02:25:12;;;;;;;6.97;2.50;;;5.00;99.90;;;;;;4140440;28;20061;-66
2022/02/05 02:29:28;;;;;;;10.07;2.95;;;5.10;99.90;;;;;;4138399;28;20481;-66
2022/02/05 02:31:33;;;;;;;10.13;3.00;;;5.10;99.90;;;;;;4140192;28;20045;-67
2022/02/05 02:33:40;;;;;;;7.72;2.58;;;5.00;99.90;;;;;;4133891;28;20046;-66
2022/02/05 02:35:45;;;;;;;12.13;2.40;;;5.00;99.90;;;;;;4137803;28;20393;-66
2022/02/05 02:42:18;;;;;;;9.50;3.42;;;5.10;99.90;;;;;;4136930;28;20109;-66
2022/02/05 02:44:19;;;;;;;10.57;3.35;;;5.00;99.90;;;;;;4141517;28;20050;-66
2022/02/05 02:46:20;;;;;;;5.95;2.65;;;5.00;99.90;;;;;;4136975;28;20428;-66
2022/02/05 02:48:21;;;;;;;9.80;3.17;;;5.00;99.90;;;;;;4143137;28;20045;-66
2022/02/05 02:57:17;;;;;;;9.90;2.80;;;5.10;99.90;;;;;;4140550;28;20046;-66
2022/02/05 02:59:34;;;;;;;11.07;3.40;;;5.00;99.90;;;;;;4140984;28;21996;-66
2022/02/05 03:01:41;;;;;;;7.35;2.97;;;5.00;99.90;;;;;;4143327;28;20481;-66
2022/02/05 03:03:41;;;;;;;7.18;2.58;;;5.00;99.90;;;;;;4144656;28;20187;-66
2022/02/05 03:05:42;;;;;;;12.85;3.55;;;5.00;99.90;;;;;;4142375;28;20073;-66
2022/02/05 03:07:43;;;;;;;14.57;3.35;;;5.00;99.90;;;;;;4140671;28;20041;-66
2022/02/05 03:09:45;;;;;;;6.60;2.95;;;4.90;99.90;;;;;;4144845;28;20134;-66
2022/02/05 03:11:46;;;;;;;9.95;2.88;;;4.90;99.90;;;;;;4140299;28;20452;-66
2022/02/05 03:13:46;;;;;;;10.63;2.92;;;5.00;99.90;;;;;;4145781;28;20038;-66
2022/02/05 03:15:48;;;;;;;10.20;3.10;;;5.00;99.90;;;;;;4143897;28;20054;-66
2022/02/05 03:18:04;;;;;;;10.65;2.78;;;5.00;99.90;;;;;;4141906;28;20042;-66
2022/02/05 03:20:05;;;;;;;11.20;2.53;;;5.00;99.90;;;;;;4124505;28;20469;-68
2022/02/05 03:22:05;;;;;;;8.75;2.50;;;5.00;99.90;;;;;;4140149;28;20489;-66
2022/02/05 03:24:06;;;;;;;8.35;2.60;;;5.00;99.90;;;;;;4136046;28;20093;-66
2022/02/05 03:26:07;;;;;;;7.38;2.80;;;5.00;99.90;;;;;;4143408;28;20497;-66
2022/02/05 03:28:08;;;;;;;12.25;3.15;;;5.00;99.90;;;;;;4145128;28;20053;-66
2022/02/05 03:30:09;;;;;;;8.55;2.55;;;5.00;99.90;;;;;;4142516;28;20045;-67
2022/02/05 03:32:10;;;;;;;8.38;2.28;;;5.00;99.90;;;;;;4135318;28;20132;-66
2022/02/05 03:34:10;;;;;;;9.70;2.85;;;5.00;99.90;;;;;;4141962;28;20641;-66
2022/02/05 03:36:11;;;;;;;14.57;2.83;;;5.00;99.90;;;;;;4140141;28;20118;-66
2022/02/05 03:38:12;;;;;;;7.00;2.50;;;5.00;99.90;;;;;;4142099;28;20449;-66
2022/02/05 03:40:12;;;;;;;9.85;2.53;;;5.00;99.90;;;;;;4138649;28;20447;-66
2022/02/05 03:42:13;;;;;;;9.25;2.85;;;5.00;99.90;;;;;;4141491;28;20038;-66
2022/02/05 03:44:14;;;;;;;7.93;2.33;;;4.90;99.90;;;;;;4142104;28;20049;-66
2022/02/05 03:46:15;;;;;;;7.70;2.35;;;5.00;99.90;;;;;;4137244;28;20485;-66
2022/02/05 03:48:15;;;;;;;13.20;2.90;;;5.00;99.90;;;;;;4139344;28;20073;-67
2022/02/05 03:50:16;;;;;;;13.43;3.40;;;5.00;99.90;;;;;;4143376;28;20104;-67
2022/02/05 03:52:17;;;;;;;9.02;2.63;;;5.00;99.90;;;;;;4143845;28;20038;-66
2022/02/05 03:54:20;;;;;;;10.60;2.85;;;5.00;99.90;;;;;;4143970;28;20052;-66
2022/02/05 03:56:21;;;;;;;9.27;3.08;;;5.00;99.90;;;;;;4141354;28;20041;-67
2022/02/05 03:58:22;;;;;;;9.77;3.15;;;5.00;99.90;;;;;;4142340;28;20038;-66
2022/02/05 04:00:22;;;;;;;12.73;3.13;;;5.00;99.90;;;;;;4140921;28;20129;-67
2022/02/05 04:02:23;;;;;;;8.90;2.45;;;5.00;99.90;;;;;;4141632;28;20401;-66
2022/02/05 04:04:25;;;;;;;9.43;2.75;;;5.00;99.90;;;;;;4143399;28;20049;-66
2022/02/05 04:06:26;;;;;;;;;;;4.90;99.90;;;;;;4139174;28;20065;-66
2022/02/05 04:08:27;;;;;;;8.07;2.40;;;4.90;99.90;;;;;;4137277;28;20443;-66
2022/02/05 04:10:30;;;;;;;13.82;2.42;;;4.90;99.90;;;;;;4138874;28;20031;-66
2022/02/05 04:17:10;;;;;;;11.30;2.88;;;5.00;99.90;;;;;;4133814;28;20035;-66
2022/02/05 04:19:11;;;;;;;6.95;2.60;;;4.90;99.90;;;;;;4137869;28;20418;-66
2022/02/05 04:21:11;;;;;;;12.25;3.20;;;4.90;99.90;;;;;;4140043;28;20069;-66
2022/02/05 04:23:12;;;;;;;10.10;2.42;;;4.90;99.90;;;;;;4136100;28;20472;-66
2022/02/05 04:25:13;;;;;;;7.13;2.42;;;4.90;99.90;;;;;;4139608;28;20046;-67
2022/02/05 04:27:14;;;;;;;11.85;3.22;;;4.90;99.90;;;;;;4143538;28;20034;-66
2022/02/05 04:29:14;;;;;;;9.38;2.28;;;4.90;99.90;;;;;;4134403;28;20030;-66
2022/02/05 04:31:15;;;;;;;14.82;3.70;;;4.90;99.90;;;;;;4142368;28;20072;-66
2022/02/05 04:33:16;;;;;;;8.57;2.83;;;4.90;99.90;;;;;;4142551;28;20417;-66
2022/02/05 04:35:17;;;;;;;19.48;2.83;;;4.90;99.90;;;;;;4139629;28;20469;-66
2022/02/05 04:37:22;;;;;;;10.13;2.92;;;4.90;99.90;;;;;;4139541;28;20065;-66
2022/02/05 04:39:23;;;;;;;12.48;2.90;;;4.90;99.90;;;;;;4138969;28;20034;-66
2022/02/05 04:41:32;;;;;;;9.80;2.40;;;4.90;99.90;;;;;;4143171;28;20029;-66
2022/02/05 04:43:50;;;;;;;9.18;2.90;;;4.90;99.90;;;;;;4139803;28;20057;-67
2022/02/05 05:21:01;;;;;;;13.45;2.92;;;4.60;99.90;;;;;;4136880;28;20038;-66
2022/02/05 05:23:02;;;;;;;5.13;1.95;;;4.60;99.90;;;;;;4136716;28;20145;-67
2022/02/05 05:25:03;;;;;;;7.75;2.28;;;4.70;99.90;;;;;;4138107;28;20124;-68
2022/02/05 05:27:04;;;;;;;10.60;2.85;;;4.60;99.90;;;;;;4139435;28;20036;-66
2022/02/05 05:29:04;;;;;;;10.50;2.55;;;4.60;99.90;;;;;;4136445;28;20580;-67
2022/02/05 05:31:05;;;;;;;6.45;2.17;;;4.60;99.90;;;;;;4138597;28;20052;-67
2022/02/05 05:33:07;;;;;;;7.50;2.78;;;4.60;99.90;;;;;;4140598;28;20041;-67
2022/02/05 05:35:08;;;;;;;10.98;2.85;;;4.70;99.90;;;;;;4136218;28;20042;-68
2022/02/05 05:37:09;;;;;;;9.07;3.10;;;4.70;99.90;;;;;;4137388;28;20042;-66
2022/02/05 05:39:11;;;;;;;8.60;2.25;;;4.60;99.90;;;;;;4135316;28;20113;-66
2022/02/05 05:41:12;;;;;;;;;;;4.70;99.90;;;;;;4139264;28;20034;-66
2022/02/05 05:43:29;;;;;;;12.18;3.78;;;4.70;99.90;;;;;;4138879;28;19909;-66
2022/02/05 05:46:02;;;;;;;11.48;3.60;;;4.60;99.90;;;;;;4136669;28;20053;-67
2022/02/05 05:50:33;;;;;;;11.65;2.90;;;4.70;99.90;;;;;;4135415;28;20435;-66
2022/02/05 05:52:29;;;;;;;7.07;2.70;;;4.70;99.90;;;;;;4138795;28;20128;-67
2022/02/05 05:54:30;;;;;;;9.38;2.40;;;4.70;99.90;;;;;;4139696;28;20049;-67
2022/02/05 05:56:33;;;;;;;8.70;2.60;;;4.70;99.90;;;;;;4135510;28;20034;-67
2022/02/05 05:58:34;;;;;;;7.35;2.35;;;4.70;99.90;;;;;;4137851;28;20124;-67
2022/02/05 06:00:34;;;;;;;10.02;3.00;;;4.70;99.90;;;;;;4135619;28;20035;-66
2022/02/05 06:02:36;;;;;;;9.90;2.85;;;4.70;99.90;;;;;;4138816;28;20068;-66
2022/02/05 06:04:37;;;;;;;11.57;2.75;;;4.70;99.90;;;;;;4138710;28;20481;-67
2022/02/05 06:06:38;;;;;;;7.53;3.05;;;4.70;99.90;;;;;;4135318;28;20130;-65
2022/02/05 06:08:38;;;;;;;10.23;2.88;;;4.70;99.90;;;;;;4135417;28;20046;-66
2022/02/05 06:10:39;;;;;;;10.00;2.42;;;4.70;99.90;;;;;;4135753;28;20129;-66
2022/02/05 06:12:40;;;;;;;9.52;3.13;;;4.70;99.90;;;;;;4135832;28;20061;-66
2022/02/05 06:14:41;;;;;;;6.93;2.40;;;4.70;99.90;;;;;;4139725;28;20040;-66
2022/02/05 06:16:43;;;;;;;12.75;3.20;;;4.70;99.90;;;;;;4120966;28;20398;-66
2022/02/05 06:18:44;;;;;;;11.23;2.58;;;4.60;99.90;;;;;;4139213;28;20037;-66
2022/02/05 06:20:44;;;;;;;8.88;2.70;;;4.60;99.90;;;;;;4137159;28;20393;-66
2022/02/05 06:22:45;;;;;;;9.07;2.92;;;4.60;99.90;;;;;;4138941;28;20047;-66
2022/02/05 06:24:45;;;;;;;9.02;2.88;;;4.60;99.90;;;;;;4139001;28;20481;-66
2022/02/05 06:26:46;;;;;;;11.48;2.75;;;4.60;99.90;;;;;;4140237;28;20030;-66
2022/02/05 06:28:47;;;;;;;6.15;2.42;;;4.60;99.90;;;;;;4119555;28;20035;-66
2022/02/05 06:30:48;;;;;;;10.93;2.88;;;4.70;99.90;;;;;;4137119;28;20475;-66
2022/02/05 06:32:48;;;;;;;12.90;3.05;;;4.60;99.90;;;;;;4136898;28;20066;-66
2022/02/05 06:34:49;;;;;;;9.88;2.90;;;4.60;99.90;;;;;;4142272;28;20037;-66
2022/02/05 06:36:50;;;;;;;6.57;2.90;;;4.60;99.90;;;;;;4139126;28;20172;-66
2022/02/05 06:38:50;;;;;;;9.32;3.15;;;4.60;99.90;;;;;;4141954;28;20160;-66
2022/02/05 06:40:52;;;;;;;10.05;3.03;;;4.60;99.90;;;;;;4139051;28;20396;-66
2022/02/05 06:42:53;;;;;;;8.30;2.65;;;4.60;99.90;;;;;;4124018;28;20469;-66
2022/02/05 06:44:53;;;;;;;7.40;2.50;;;4.60;99.90;;;;;;4143122;28;20050;-66
2022/02/05 06:46:54;;;;;;;9.70;2.65;;;4.60;99.90;;;;;;4140915;28;20034;-66
2022/02/05 06:48:54;;;;;;;10.48;3.10;;;4.60;99.90;;;;;;4143736;28;20042;-66
2022/02/05 06:50:55;;;;;;;6.63;2.22;;;4.60;99.90;;;;;;4138970;28;20366;-66
2022/02/05 06:52:56;;;;;;;10.48;2.65;;;4.60;99.90;;;;;;4142273;28;20105;-66
2022/02/05 06:54:56;;;;;;;11.65;3.35;;;4.60;99.90;;;;;;4139137;28;20084;-66
2022/02/05 06:56:57;;;;;;;9.07;2.90;;;4.50;99.90;;;;;;4140313;28;20088;-66
2022/02/05 06:58:57;;;;;;;9.10;2.25;;;4.50;99.90;;;;;;4145054;28;20048;-66
2022/02/05 07:00:58;;;;;;;9.82;2.92;;;4.60;99.90;;;;;;4142378;28;20038;-66
2022/02/05 07:02:59;;;;;;;7.70;2.55;;;4.50;99.90;;;;;;4126318;28;20477;-66
2022/02/05 07:05:00;;;;;;;9.98;3.10;;;4.50;99.90;;;;;;4138190;28;20054;-66
2022/02/05 07:07:00;;;;;;;11.73;2.95;;;4.50;99.90;;;;;;4140236;28;20374;-66
2022/02/05 07:09:03;;;;;;;8.15;2.85;;;4.60;99.90;;;;;;4140510;28;20528;-66
2022/02/05 07:11:04;;;;;;;7.70;2.40;;;4.60;99.90;;;;;;4135530;28;20045;-66
2022/02/05 07:13:14;;;;;;;6.75;2.63;;;4.60;99.90;;;;;;4140215;28;20068;-67
2022/02/05 07:15:20;;;;;;;8.25;2.63;;;4.60;99.90;;;;;;4129848;28;20168;-66
2022/02/05 07:17:50;;;;;;;9.40;2.50;;;4.60;99.90;;;;;;4136130;28;20030;-66
2022/02/05 07:19:55;;;;;;;10.13;3.05;;;4.60;99.90;;;;;;4140798;28;20038;-66
2022/02/05 07:21:56;;;;;;;9.07;2.70;;;4.60;99.90;;;;;;4120710;28;20047;-66
2022/02/05 07:30:45;;;;;;;6.15;2.20;;;4.60;99.90;;;;;;4141082;28;20129;-66
2022/02/05 07:32:45;;;;;;;10.82;2.75;;;4.60;99.90;;;;;;4138896;28;20547;-66
2022/02/05 07:34:46;;;;;;;10.73;2.85;;;4.60;99.90;;;;;;4138925;28;20420;-66
2022/02/05 07:36:48;;;;;;;7.75;2.88;;;4.70;99.90;;;;;;4143717;28;20038;-67
2022/02/05 07:38:49;;;;;;;14.57;3.10;;;4.70;99.90;;;;;;4142639;28;20033;-66
2022/02/05 07:40:51;;;;;;;7.25;2.60;;;4.60;99.90;;;;;;4127926;28;20477;-66
2022/02/05 07:42:51;;;;;;;8.73;2.47;;;4.60;99.90;;;;;;4127649;28;20056;-66
2022/02/05 07:44:52;;;;;;;6.47;2.10;;;4.60;99.90;;;;;;4134352;28;20124;-66
2022/02/05 07:46:53;;;;;;;12.48;2.70;;;4.70;99.90;;;;;;4134094;28;20090;-66
2022/02/05 07:48:54;;;;;;;10.05;2.45;;;4.60;99.90;;;;;;4141467;28;20432;-66
2022/02/05 07:50:55;;;;;;;7.55;2.17;;;4.60;99.90;;;;;;4134652;28;20038;-66
2022/02/05 07:52:55;;;;;;;12.25;2.72;;;4.70;99.90;;;;;;4140984;28;20469;-66
2022/02/05 07:54:56;;;;;;;9.70;2.38;;;4.70;99.90;;;;;;4138289;28;20035;-66
2022/02/05 07:56:57;;;;;;;10.25;2.47;;;4.70;99.90;;;;;;4137808;28;20044;-66
2022/02/05 07:58:57;;;;;;;6.18;2.50;;;4.70;99.90;;;;;;4137957;28;20039;-66
2022/02/05 08:00:58;;;;;;;6.80;2.35;;;4.80;99.90;;;;;;4137137;28;20037;-66
2022/02/05 08:02:59;;;;;;;6.22;2.13;;;4.80;99.90;;;;;;4143634;28;20042;-66
2022/02/05 08:04:59;;;;;;;7.22;2.20;;;5.00;99.90;;;;;;4139112;28;20077;-66
2022/02/05 08:07:01;;;;;;;10.85;2.67;;;5.20;99.90;;;;;;4138255;28;20041;-66
2022/02/05 08:09:11;;;;;;;7.70;2.25;;;5.40;99.90;;;;;;4136919;28;20053;-66
2022/02/05 08:11:16;;;;;;;7.20;2.33;;;5.50;99.90;;;;;;4139937;28;20092;-66
2022/02/05 08:13:18;;;;;;;9.23;2.40;;;5.80;99.90;;;;;;4142295;28;20042;-66
2022/02/05 08:15:22;;;;;;;9.13;2.25;;;5.90;99.90;;;;;;4132553;28;20034;-66
2022/02/05 08:17:30;;;;;;;16.33;3.35;;;6.10;99.90;;;;;;4142433;28;20084;-66
2022/02/05 08:19:30;;;;;;;10.15;2.65;;;6.40;99.90;;;;;;4139279;28;20038;-66
2022/02/05 08:21:31;;;;;;;11.40;2.75;;;6.60;99.90;;;;;;4142144;28;20069;-66
2022/02/05 08:23:31;;;;;;;9.30;2.50;;;6.70;99.90;;;;;;4138853;28;20030;-67
2022/02/05 08:25:32;;;;;;;9.50;2.50;;;6.80;99.90;;;;;;4134002;28;20500;-67
2022/02/05 08:27:33;;;;;;;10.35;2.70;;;7.00;99.90;;;;;;4140451;28;20406;-66
2022/02/05 08:29:35;;;;;;;8.57;2.70;;;7.20;99.90;;;;;;4139136;28;20045;-67
2022/02/05 08:31:36;;;;;;;9.82;2.30;;;7.40;99.90;;;;;;4139850;28;20057;-67
2022/02/05 08:33:42;;;;;;;5.15;1.90;;;7.60;99.90;;;;;;4138814;28;20038;-67
2022/02/05 08:35:42;;;;;;;8.82;2.30;;;7.70;99.90;;;;;;4139898;28;20480;-67
2022/02/05 08:37:47;;;;;;;6.55;2.20;;;8.00;99.90;;;;;;4131290;28;20057;-67
2022/02/05 08:39:48;;;;;;;10.13;2.53;;;8.30;99.90;;;;;;4122112;28;20046;-67
2022/02/05 08:41:49;;;;;;;11.30;2.65;;;8.40;99.90;;;;;;4137748;28;20428;-67
2022/02/05 08:43:51;;;;;;;10.18;2.50;;;8.50;99.90;;;;;;4137813;28;20141;-67
2022/02/05 08:45:51;;;;;;;6.75;2.38;;;8.70;99.90;;;;;;4125325;28;20530;-67
2022/02/05 08:47:53;;;;;;;10.52;2.72;;;8.80;99.90;;;;;;4136692;28;20030;-67
2022/02/05 08:49:55;;;;;;;7.82;2.15;;;8.90;99.90;;;;;;4142040;28;20061;-67
2022/02/05 08:52:00;;;;;;;10.52;2.63;;;9.00;99.90;;;;;;4138117;28;20057;-68
2022/02/05 08:54:00;;;;;;;5.78;2.47;;;9.10;99.90;;;;;;4139733;28;20037;-68
2022/02/05 08:56:01;;;;;;;6.45;2.33;;;9.20;99.90;;;;;;4142564;28;20046;-68
2022/02/05 08:58:07;;;;;;;10.45;2.63;;;9.40;99.90;;;;;;4135913;28;20042;-68
2022/02/05 09:00:13;;;;;;;7.82;2.30;;;9.40;99.90;;;;;;4139415;28;20373;-68
2022/02/05 09:02:20;;;;;;;12.10;3.28;;;9.60;99.90;;;;;;4139417;28;20038;-68
2022/02/05 09:04:35;;;;;;;7.00;2.28;;;9.70;99.90;;;;;;4142454;28;20042;-68
2022/02/05 09:06:39;;;;;;;7.93;2.30;;;9.90;99.90;;;;;;4136068;28;20100;-68
2022/02/05 09:08:49;;;;;;;5.60;2.38;;;10.10;99.90;;;;;;4134988;28;20030;-68
2022/02/05 09:11:04;;;;;;;8.07;2.72;;;10.30;99.90;;;;;;4136301;28;20038;-68
2022/02/05 09:13:11;;;;;;;6.40;2.13;;;10.30;99.90;;;;;;4142541;28;20034;-68
2022/02/05 09:15:12;;;;;;;7.47;1.83;;;10.30;99.90;;;;;;4138912;28;20132;-68
2022/02/05 09:17:12;;;;;;;6.90;2.45;;;10.60;99.90;;;;;;4136561;28;20405;-68
2022/02/05 09:19:13;;;;;;;5.50;1.83;;;10.70;99.90;;;;;;4119624;28;20142;-68
2022/02/05 09:21:15;;;;;;;10.05;2.97;;;10.90;99.90;;;;;;4138361;28;20036;-68
2022/02/05 09:23:16;;;;;;;6.25;2.13;;;10.80;99.90;;;;;;4138009;28;20420;-67
2022/02/05 09:25:20;;;;;;;9.45;2.20;;;10.80;99.90;;;;;;4136645;28;20108;-68
2022/02/05 09:27:21;;;;;;;8.93;3.08;;;10.80;99.90;;;;;;4140527;28;20057;-68
2022/02/05 09:29:22;;;;;;;10.57;2.58;;;10.80;99.90;;;;;;4139336;28;20050;-68
2022/02/05 09:31:31;;;;;;;5.78;2.05;;;10.70;99.90;;;;;;4136166;28;20038;-68
2022/02/05 09:33:35;;;;;;;14.18;3.28;;;10.60;99.90;;;;;;4138187;28;20074;-68
2022/02/05 09:35:36;;;;;;;6.47;2.25;;;10.50;99.90;;;;;;4136902;28;20045;-68
2022/02/05 09:37:37;;;;;;;9.23;2.28;;;10.40;99.90;;;;;;4139259;28;20384;-67
2022/02/05 09:39:37;;;;;;;8.35;2.60;;;10.40;99.90;;;;;;4136224;28;20052;-67
2022/02/05 09:41:40;;;;;;;5.95;2.17;;;10.30;99.90;;;;;;4134368;28;20393;-67
2022/02/05 09:43:41;;;;;;;10.15;3.00;;;10.30;99.90;;;;;;4136375;28;20058;-68
2022/02/05 09:45:41;;;;;;;9.93;2.63;;;10.10;99.90;;;;;;4137345;28;20046;-68
2022/02/05 09:47:42;;;;;;;8.98;2.38;;;9.90;99.90;;;;;;4141274;28;20506;-68
2022/02/05 09:49:43;;;;;;;6.88;2.55;;;9.80;99.90;;;;;;4137338;28;20034;-68
2022/02/05 09:51:54;;;;;;;9.93;2.42;;;9.80;99.90;;;;;;4136503;28;20121;-68
2022/02/05 09:53:57;;;;;;;7.43;2.22;;;9.70;99.90;;;;;;4142848;28;20034;-67
2022/02/05 09:56:00;;;;;;;8.60;2.53;;;9.60;99.90;;;;;;4133025;28;20523;-68
2022/02/05 09:58:00;;;;;;;9.65;2.58;;;9.60;99.90;;;;;;4143724;28;20038;-67
2022/02/05 10:00:03;;;;;;;9.98;2.97;;;9.60;99.90;;;;;;4137990;28;20431;-67
2022/02/05 10:02:22;;;;;;;11.23;2.70;;;9.50;99.90;;;;;;4136506;28;20041;-67
2022/02/05 10:04:23;;;;;;;9.43;2.35;;;9.50;99.90;;;;;;4136198;28;20065;-68
2022/02/05 10:06:32;;;;;;;12.30;2.60;;;9.30;99.90;;;;;;4138363;28;20046;-67
2022/02/05 10:08:35;;;;;;;11.38;2.78;;;9.20;99.90;;;;;;4135925;28;20492;-67
2022/02/05 10:10:43;;;;;;;;;;;9.20;99.90;;;;;;4136576;28;20077;-67
2022/02/05 10:12:44;;;;;;;8.30;2.30;;;9.20;99.90;;;;;;4138901;28;20332;-67
2022/02/05 10:14:50;;;;;;;10.00;2.30;;;9.30;99.90;;;;;;4137537;28;20050;-67
2022/02/05 10:16:56;;;;;;;9.07;2.78;;;9.30;99.90;;;;;;4134283;28;20034;-67
2022/02/05 10:18:58;;;;;;;5.57;2.08;;;9.40;99.90;;;;;;4139414;28;20401;-67
2022/02/05 10:21:20;;;;;;;9.87;2.43;;;9.30;99.90;;;;;;4126204;28;20082;-67
2022/02/05 10:23:21;;;;;;;12.98;2.47;;;9.30;99.90;;;;;;4138291;28;20276;-67
2022/02/05 10:25:28;;;;;;;10.63;2.40;;;9.30;99.90;;;;;;4136763;28;20192;-68
2022/02/05 10:27:31;;;;;;;8.35;2.20;;;9.30;99.90;;;;;;4135962;28;20481;-67
2022/02/05 10:29:39;;;;;;;10.98;2.72;;;9.30;99.90;;;;;;4140423;28;20062;-67
2022/02/05 10:34:12;;;;;;;14.52;2.83;;;9.20;99.90;;;;;;4137683;28;20045;-67
2022/02/05 10:36:24;;;;;;;8.98;2.50;;;9.20;99.90;;;;;;4136258;28;20050;-67
2022/02/05 10:38:49;;;;;;;10.45;2.67;;;9.20;99.90;;;;;;4136971;28;20097;-67
2022/02/05 10:42:59;;;;;;;15.23;3.35;;;9.00;99.90;;;;;;4139069;28;20655;-67
2022/02/05 10:43:14;;;;;;;9.07;2.67;;;8.90;99.90;;;;;;4136240;28;20048;-67
2022/02/05 10:45:16;;;;;;;12.60;3.08;;;8.70;99.90;;;;;;4140044;28;20383;-67
2022/02/05 10:47:16;;;;;;;14.40;2.97;;;8.70;99.90;;;;;;4136668;28;20381;-67
2022/02/05 10:51:47;;;;;;;11.48;3.55;;;8.50;99.90;;;;;;4141244;28;20132;-67
2022/02/05 10:53:54;;;;;;;10.13;2.47;;;8.60;99.90;;;;;;4140114;28;20045;-67
2022/02/05 10:56:37;;;;;;;11.27;3.30;;;8.60;99.90;;;;;;4141718;28;20037;-67
2022/02/05 11:05:18;;;;;;;12.68;3.30;;;8.70;99.90;;;;;;4117961;28;20422;-68
2022/02/05 11:07:21;;;;;;;9.75;2.50;;;8.70;99.90;;;;;;4138393;28;20041;-67
2022/02/05 11:09:24;;;;;;;6.22;2.10;;;8.70;99.90;;;;;;4136819;28;20120;-67
2022/02/05 11:12:20;;;;;;;9.18;2.80;;;8.70;99.90;;;;;;4126366;28;20073;-67
2022/02/05 11:14:11;;;;;;;9.48;2.17;;;8.70;99.90;;;;;;4139190;28;20096;-67
2022/02/05 11:18:52;;;;;;;11.85;2.38;;;8.70;99.90;;;;;;4143556;28;20061;-67
2022/02/05 11:20:52;;;;;;;14.45;3.00;;;8.70;99.90;;;;;;4141554;28;20056;-67
2022/02/05 11:23:03;;;;;;;11.20;2.70;;;8.70;99.90;;;;;;4137621;28;20125;-67
2022/02/05 11:25:06;;;;;;;12.52;3.38;;;8.70;99.90;;;;;;4142024;28;20042;-67
2022/02/05 11:27:07;;;;;;;;;;;8.70;99.90;;;;;;4138557;28;20034;-67
2022/02/05 11:29:24;;;;;;;13.38;2.45;;;8.70;99.90;;;;;;4140884;28;19916;-67
2022/02/05 11:31:43;;;;;;;8.93;2.97;;;8.70;99.90;;;;;;4139168;28;20045;-67
2022/02/05 11:33:44;;;;;;;12.10;2.70;;;8.70;99.90;;;;;;4142478;28;20038;-67
2022/02/05 11:37:57;;;;;;;8.35;2.42;;;8.60;99.90;;;;;;4143331;28;20041;-67
2022/02/05 11:39:58;;;;;;;12.80;2.88;;;8.50;99.90;;;;;;4138809;28;20544;-67
2022/02/05 11:42:36;;;;;;;9.57;2.90;;;8.40;99.90;;;;;;4137680;28;20041;-67
2022/02/05 11:44:40;;;;;;;12.52;3.13;;;8.30;99.90;;;;;;4121373;28;20433;-67
2022/02/05 11:46:41;;;;;;;12.95;3.35;;;8.30;99.90;;;;;;4136744;28;20046;-67
2022/02/05 11:48:51;;;;;;;15.10;3.40;;;8.30;99.90;;;;;;4124078;28;20039;-67
2022/02/05 11:51:22;;;;;;;12.88;2.97;;;8.20;99.90;;;;;;4136553;28;20062;-66
2022/02/05 11:53:22;;;;;;;12.45;3.03;;;8.20;99.90;;;;;;4133812;28;20092;-67
2022/02/05 11:55:34;;;;;;;13.35;3.10;;;8.30;99.90;;;;;;4135597;28;20466;-67
2022/02/05 11:57:44;;;;;;;8.80;2.80;;;8.20;99.90;;;;;;4119910;28;20043;-67
2022/02/05 11:59:59;;;;;;;13.25;3.08;;;8.20;99.90;;;;;;4140912;28;20061;-67
2022/02/05 12:02:20;;;;;;;12.82;2.75;;;8.30;99.90;;;;;;4141651;28;20188;-67
2022/02/05 12:04:24;;;;;;;9.90;2.78;;;8.40;99.90;;;;;;4141396;28;20121;-67
2022/02/05 12:06:47;;;;;;;9.65;2.80;;;8.40;99.90;;;;;;4142514;28;20511;-67
2022/02/05 12:08:49;;;;;;;11.25;2.42;;;8.40;99.90;;;;;;4138947;28;20034;-67
2022/02/05 12:10:52;;;;;;;8.43;2.20;;;8.40;99.90;;;;;;4136682;28;20037;-67
2022/02/05 12:13:16;;;;;;;8.23;2.20;;;8.40;99.90;;;;;;4141270;28;20108;-67
2022/02/05 12:15:18;;;;;;;13.73;1.95;;;8.40;99.90;;;;;;4138169;28;20129;-67
2022/02/05 12:17:27;;;;;;;6.95;1.92;;;8.40;99.90;;;;;;4120840;28;20038;-66
2022/02/05 12:19:28;;;;;;;14.32;2.50;;;8.40;99.90;;;;;;4140877;28;20042;-66
2022/02/05 12:21:50;;;;;;;8.73;2.22;;;8.40;99.90;;;;;;4132597;28;20030;-67
2022/02/05 12:25:58;;;;;;;10.93;2.55;;;8.50;99.90;;;;;;4139896;28;20068;-67
2022/02/05 12:28:38;;;;;;;12.52;2.22;;;8.60;99.90;;;;;;4138397;28;20030;-67
2022/02/05 12:30:41;;;;;;;5.82;1.95;;;8.60;99.90;;;;;;4138799;28;20436;-67
2022/02/05 12:32:41;;;;;;;6.75;2.17;;;8.50;99.90;;;;;;4139812;28;20042;-67
2022/02/05 12:34:43;;;;;;;9.73;2.28;;;8.50;99.90;;;;;;4142764;28;20038;-67
2022/02/05 12:36:51;;;;;;;7.05;1.95;;;8.50;99.90;;;;;;4133978;28;20030;-67
2022/02/05 12:38:54;;;;;;;5.75;1.83;;;8.50;99.90;;;;;;4138290;28;20169;-67
2022/02/05 12:40:54;;;;;;;8.82;2.38;;;8.50;99.90;;;;;;4140018;28;20109;-66
2022/02/05 12:42:56;;;;;;;9.55;2.55;;;8.50;99.90;;;;;;4136788;28;20409;-67
2022/02/05 12:44:56;;;;;;;8.23;2.20;;;8.50;99.90;;;;;;4139809;28;20050;-67
2022/02/05 12:47:03;;;;;;;8.63;3.10;;;8.60;99.90;;;;;;4137886;28;20058;-67
2022/02/05 12:49:12;;;;;;;8.23;3.42;;;8.70;99.90;;;;;;4142796;28;20038;-67
2022/02/05 12:51:13;;;;;;;12.82;3.00;;;8.70;99.90;;;;;;4137871;28;20165;-67
2022/02/05 12:53:15;;;;;;;7.85;2.45;;;8.70;99.90;;;;;;4140337;28;20038;-67
2022/02/05 12:55:26;;;;;;;5.90;1.50;;;8.70;99.90;;;;;;4138316;28;20050;-67
2022/02/05 12:57:28;;;;;;;11.60;2.20;;;8.80;99.90;;;;;;4137519;28;20085;-67
2022/02/05 12:59:35;;;;;;;5.45;2.40;;;8.80;99.90;;;;;;4137071;28;20061;-67
2022/02/05 13:01:48;;;;;;;7.43;1.90;;;8.80;99.90;;;;;;4134244;28;20049;-67
2022/02/05 13:03:49;;;;;;;9.00;2.42;;;8.80;99.90;;;;;;4137711;28;20397;-67
2022/02/05 13:05:50;;;;;;;9.63;2.28;;;8.80;99.90;;;;;;4136840;28;20047;-66
2022/02/05 13:07:53;;;;;;;6.70;1.98;;;8.80;99.90;;;;;;4132635;28;20080;-67
2022/02/05 13:10:04;;;;;;;9.88;2.35;;;8.90;99.90;;;;;;4138813;28;20053;-67
2022/02/05 13:12:09;;;;;;;8.02;2.60;;;8.90;99.90;;;;;;4134782;28;20045;-67
2022/02/05 13:14:10;;;;;;;13.02;2.85;;;9.00;99.90;;;;;;4141270;28;20462;-67
2022/02/05 13:16:10;;;;;;;7.72;2.33;;;8.90;99.90;;;;;;4132944;28;20035;-67
2022/02/05 13:18:22;;;;;;;9.93;2.67;;;8.90;99.90;;;;;;4137071;28;20034;-66
2022/02/05 13:25:16;;;;;;;13.10;2.53;;;8.90;99.90;;;;;;4138138;28;20097;-66
2022/02/05 13:27:28;;;;;;;5.97;2.08;;;8.90;99.90;;;;;;4136229;28;20058;-67